sensor_id;sensor_type;location;lat;lon;timestamp;P1;durP1;ratioP1;P2;durP2;ratioP2
35540;SDS011;21650;48.840;9.162;2023-07-29T00:00:26;2.40;;;1.23;;
35540;SDS011;21650;48.840;9.162;2023-07-29T00:02:52;3.67;;;1.57;;
35540;SDS011;21650;48.840;9.162;2023-07-29T00:05:18;2.33;;;1.70;;
35540;SDS011;21650;48.840;9.162;2023-07-29T00:07:44;3.63;;;1.60;;
35540;SDS011;21650;48.840;9.162;2023-07-29T00:10:09;3.13;;;1.73;;
35540;SDS011;21650;48.840;9.162;2023-07-29T00:12:35;1.63;;;1.30;;
35540;SDS011;21650;48.840;9.162;2023-07-29T00:15:00;2.60;;;1.30;;
35540;SDS011;21650;48.840;9.162;2023-07-29T00:17:26;1.87;;;1.60;;
35540;SDS011;21650;48.840;9.162;2023-07-29T00:19:51;3.80;;;1.40;;
35540;SDS011;21650;48.840;9.162;2023-07-29T00:22:17;2.20;;;1.63;;
35540;SDS011;21650;48.840;9.162;2023-07-29T00:24:43;2.60;;;1.53;;
35540;SDS011;21650;48.840;9.162;2023-07-29T00:27:08;2.83;;;1.70;;
35540;SDS011;21650;48.840;9.162;2023-07-29T00:29:34;2.00;;;1.50;;
35540;SDS011;21650;48.840;9.162;2023-07-29T00:31:59;2.37;;;1.57;;
35540;SDS011;21650;48.840;9.162;2023-07-29T00:34:25;2.33;;;1.43;;
35540;SDS011;21650;48.840;9.162;2023-07-29T00:36:51;2.23;;;1.70;;
35540;SDS011;21650;48.840;9.162;2023-07-29T00:39:17;5.60;;;1.40;;
35540;SDS011;21650;48.840;9.162;2023-07-29T00:41:44;3.70;;;1.50;;
35540;SDS011;21650;48.840;9.162;2023-07-29T00:44:09;3.53;;;1.70;;
35540;SDS011;21650;48.840;9.162;2023-07-29T00:46:35;5.07;;;1.90;;
35540;SDS011;21650;48.840;9.162;2023-07-29T00:49:03;4.47;;;1.90;;
35540;SDS011;21650;48.840;9.162;2023-07-29T00:51:28;3.13;;;1.90;;
35540;SDS011;21650;48.840;9.162;2023-07-29T00:53:54;2.73;;;1.93;;
35540;SDS011;21650;48.840;9.162;2023-07-29T00:56:19;2.67;;;1.90;;
35540;SDS011;21650;48.840;9.162;2023-07-29T00:58:45;1.70;;;1.40;;
35540;SDS011;21650;48.840;9.162;2023-07-29T01:01:11;3.00;;;1.60;;
35540;SDS011;21650;48.840;9.162;2023-07-29T01:03:37;2.80;;;2.00;;
35540;SDS011;21650;48.840;9.162;2023-07-29T01:06:12;2.30;;;1.70;;
35540;SDS011;21650;48.840;9.162;2023-07-29T01:08:53;5.27;;;1.63;;
35540;SDS011;21650;48.840;9.162;2023-07-29T01:14:18;3.13;;;1.83;;
35540;SDS011;21650;48.840;9.162;2023-07-29T01:17:06;1.90;;;1.70;;
35540;SDS011;21650;48.840;9.162;2023-07-29T01:19:42;3.70;;;2.63;;
35540;SDS011;21650;48.840;9.162;2023-07-29T01:22:32;3.60;;;2.40;;
35540;SDS011;21650;48.840;9.162;2023-07-29T01:25:02;5.90;;;2.07;;
35540;SDS011;21650;48.840;9.162;2023-07-29T01:27:28;2.70;;;2.30;;
35540;SDS011;21650;48.840;9.162;2023-07-29T01:29:54;2.67;;;1.80;;
35540;SDS011;21650;48.840;9.162;2023-07-29T01:32:43;3.77;;;2.40;;
35540;SDS011;21650;48.840;9.162;2023-07-29T01:35:15;2.93;;;2.20;;
35540;SDS011;21650;48.840;9.162;2023-07-29T01:37:51;4.10;;;2.40;;
35540;SDS011;21650;48.840;9.162;2023-07-29T01:40:22;2.70;;;2.30;;
35540;SDS011;21650;48.840;9.162;2023-07-29T01:42:51;2.67;;;1.73;;
35540;SDS011;21650;48.840;9.162;2023-07-29T01:45:17;2.67;;;2.07;;
35540;SDS011;21650;48.840;9.162;2023-07-29T01:47:42;4.00;;;2.53;;
35540;SDS011;21650;48.840;9.162;2023-07-29T01:50:08;5.33;;;2.10;;
35540;SDS011;21650;48.840;9.162;2023-07-29T01:52:34;4.13;;;2.33;;
35540;SDS011;21650;48.840;9.162;2023-07-29T01:55:00;3.03;;;2.10;;
35540;SDS011;21650;48.840;9.162;2023-07-29T01:57:26;3.03;;;2.30;;
35540;SDS011;21650;48.840;9.162;2023-07-29T01:59:52;3.73;;;1.80;;
35540;SDS011;21650;48.840;9.162;2023-07-29T02:02:17;2.00;;;1.70;;
35540;SDS011;21650;48.840;9.162;2023-07-29T02:04:43;2.00;;;1.47;;
35540;SDS011;21650;48.840;9.162;2023-07-29T02:07:10;4.93;;;1.80;;
35540;SDS011;21650;48.840;9.162;2023-07-29T02:09:35;2.23;;;1.60;;
35540;SDS011;21650;48.840;9.162;2023-07-29T02:12:01;2.47;;;1.60;;
35540;SDS011;21650;48.840;9.162;2023-07-29T02:14:27;2.80;;;1.73;;
35540;SDS011;21650;48.840;9.162;2023-07-29T02:16:53;4.10;;;2.17;;
35540;SDS011;21650;48.840;9.162;2023-07-29T02:19:18;2.47;;;1.77;;
35540;SDS011;21650;48.840;9.162;2023-07-29T02:21:44;2.70;;;1.83;;
35540;SDS011;21650;48.840;9.162;2023-07-29T02:24:10;3.60;;;1.93;;
35540;SDS011;21650;48.840;9.162;2023-07-29T02:26:35;3.43;;;1.83;;
35540;SDS011;21650;48.840;9.162;2023-07-29T02:29:01;2.13;;;1.77;;
35540;SDS011;21650;48.840;9.162;2023-07-29T02:31:26;3.03;;;1.50;;
35540;SDS011;21650;48.840;9.162;2023-07-29T02:33:52;3.80;;;1.90;;
35540;SDS011;21650;48.840;9.162;2023-07-29T02:36:18;3.13;;;2.13;;
35540;SDS011;21650;48.840;9.162;2023-07-29T02:38:44;2.67;;;1.50;;
35540;SDS011;21650;48.840;9.162;2023-07-29T02:41:09;4.13;;;1.83;;
35540;SDS011;21650;48.840;9.162;2023-07-29T02:43:37;4.50;;;2.03;;
35540;SDS011;21650;48.840;9.162;2023-07-29T02:46:03;2.73;;;1.90;;
35540;SDS011;21650;48.840;9.162;2023-07-29T02:48:29;3.33;;;1.80;;
35540;SDS011;21650;48.840;9.162;2023-07-29T02:50:55;4.90;;;1.50;;
35540;SDS011;21650;48.840;9.162;2023-07-29T02:53:21;1.90;;;1.77;;
35540;SDS011;21650;48.840;9.162;2023-07-29T02:55:47;4.07;;;1.67;;
35540;SDS011;21650;48.840;9.162;2023-07-29T02:58:13;4.00;;;1.57;;
35540;SDS011;21650;48.840;9.162;2023-07-29T03:00:39;2.00;;;1.50;;
35540;SDS011;21650;48.840;9.162;2023-07-29T03:03:07;2.37;;;1.67;;
35540;SDS011;21650;48.840;9.162;2023-07-29T03:05:33;3.00;;;1.67;;
35540;SDS011;21650;48.840;9.162;2023-07-29T03:07:58;1.90;;;1.57;;
35540;SDS011;21650;48.840;9.162;2023-07-29T03:10:24;2.10;;;1.57;;
35540;SDS011;21650;48.840;9.162;2023-07-29T03:12:50;3.60;;;1.57;;
35540;SDS011;21650;48.840;9.162;2023-07-29T03:15:16;1.27;;;1.17;;
35540;SDS011;21650;48.840;9.162;2023-07-29T03:17:41;2.60;;;1.80;;
35540;SDS011;21650;48.840;9.162;2023-07-29T03:20:07;2.70;;;1.40;;
35540;SDS011;21650;48.840;9.162;2023-07-29T03:22:33;2.70;;;1.30;;
35540;SDS011;21650;48.840;9.162;2023-07-29T03:24:59;1.87;;;1.47;;
35540;SDS011;21650;48.840;9.162;2023-07-29T03:27:24;2.40;;;1.47;;
35540;SDS011;21650;48.840;9.162;2023-07-29T03:29:50;5.30;;;2.13;;
35540;SDS011;21650;48.840;9.162;2023-07-29T03:32:15;2.37;;;1.93;;
35540;SDS011;21650;48.840;9.162;2023-07-29T03:34:41;2.00;;;1.80;;
35540;SDS011;21650;48.840;9.162;2023-07-29T03:37:06;4.37;;;1.90;;
35540;SDS011;21650;48.840;9.162;2023-07-29T03:39:32;1.50;;;1.40;;
35540;SDS011;21650;48.840;9.162;2023-07-29T03:41:58;1.93;;;1.00;;
35540;SDS011;21650;48.840;9.162;2023-07-29T03:44:23;2.37;;;1.70;;
35540;SDS011;21650;48.840;9.162;2023-07-29T03:46:49;2.23;;;1.70;;
35540;SDS011;21650;48.840;9.162;2023-07-29T03:49:14;3.03;;;1.50;;
35540;SDS011;21650;48.840;9.162;2023-07-29T03:51:40;3.40;;;1.50;;
35540;SDS011;21650;48.840;9.162;2023-07-29T03:54:06;2.53;;;1.50;;
35540;SDS011;21650;48.840;9.162;2023-07-29T03:56:31;2.07;;;1.77;;
35540;SDS011;21650;48.840;9.162;2023-07-29T03:59:06;2.27;;;1.30;;
35540;SDS011;21650;48.840;9.162;2023-07-29T04:01:32;2.47;;;1.70;;
35540;SDS011;21650;48.840;9.162;2023-07-29T04:03:58;2.97;;;1.73;;
35540;SDS011;21650;48.840;9.162;2023-07-29T04:06:24;4.10;;;1.90;;
35540;SDS011;21650;48.840;9.162;2023-07-29T04:08:49;2.77;;;1.83;;
35540;SDS011;21650;48.840;9.162;2023-07-29T04:11:15;2.37;;;1.90;;
35540;SDS011;21650;48.840;9.162;2023-07-29T04:13:41;3.80;;;1.37;;
35540;SDS011;21650;48.840;9.162;2023-07-29T04:16:07;3.97;;;1.90;;
35540;SDS011;21650;48.840;9.162;2023-07-29T04:18:32;3.07;;;1.50;;
35540;SDS011;21650;48.840;9.162;2023-07-29T04:20:58;2.60;;;1.47;;
35540;SDS011;21650;48.840;9.162;2023-07-29T04:23:24;3.00;;;1.50;;
35540;SDS011;21650;48.840;9.162;2023-07-29T04:25:49;2.63;;;1.97;;
35540;SDS011;21650;48.840;9.162;2023-07-29T04:28:15;3.13;;;1.83;;
35540;SDS011;21650;48.840;9.162;2023-07-29T04:30:41;6.47;;;2.03;;
35540;SDS011;21650;48.840;9.162;2023-07-29T04:33:06;2.97;;;1.47;;
35540;SDS011;21650;48.840;9.162;2023-07-29T04:35:32;5.17;;;2.10;;
35540;SDS011;21650;48.840;9.162;2023-07-29T04:37:58;5.53;;;2.17;;
35540;SDS011;21650;48.840;9.162;2023-07-29T04:40:23;3.20;;;1.60;;
35540;SDS011;21650;48.840;9.162;2023-07-29T04:42:49;2.93;;;1.67;;
35540;SDS011;21650;48.840;9.162;2023-07-29T04:45:16;3.23;;;1.90;;
35540;SDS011;21650;48.840;9.162;2023-07-29T04:47:41;4.17;;;2.10;;
35540;SDS011;21650;48.840;9.162;2023-07-29T04:50:07;4.50;;;2.07;;
35540;SDS011;21650;48.840;9.162;2023-07-29T04:52:33;2.73;;;2.00;;
35540;SDS011;21650;48.840;9.162;2023-07-29T04:54:58;3.73;;;1.90;;
35540;SDS011;21650;48.840;9.162;2023-07-29T04:57:24;3.60;;;2.13;;
35540;SDS011;21650;48.840;9.162;2023-07-29T04:59:50;3.50;;;2.33;;
35540;SDS011;21650;48.840;9.162;2023-07-29T05:02:15;3.30;;;2.00;;
35540;SDS011;21650;48.840;9.162;2023-07-29T05:04:41;8.53;;;2.67;;
35540;SDS011;21650;48.840;9.162;2023-07-29T05:07:06;3.20;;;1.93;;
35540;SDS011;21650;48.840;9.162;2023-07-29T05:09:32;3.07;;;2.63;;
35540;SDS011;21650;48.840;9.162;2023-07-29T05:11:58;5.80;;;3.27;;
35540;SDS011;21650;48.840;9.162;2023-07-29T05:14:23;3.13;;;1.80;;
35540;SDS011;21650;48.840;9.162;2023-07-29T05:16:49;2.87;;;1.93;;
35540;SDS011;21650;48.840;9.162;2023-07-29T05:19:15;3.77;;;2.17;;
35540;SDS011;21650;48.840;9.162;2023-07-29T05:21:40;4.53;;;2.23;;
35540;SDS011;21650;48.840;9.162;2023-07-29T05:24:06;5.10;;;2.40;;
35540;SDS011;21650;48.840;9.162;2023-07-29T05:26:31;6.90;;;2.77;;
35540;SDS011;21650;48.840;9.162;2023-07-29T05:28:57;4.23;;;2.00;;
35540;SDS011;21650;48.840;9.162;2023-07-29T05:31:23;3.50;;;2.10;;
35540;SDS011;21650;48.840;9.162;2023-07-29T05:33:48;5.40;;;2.37;;
35540;SDS011;21650;48.840;9.162;2023-07-29T05:36:14;2.80;;;2.40;;
35540;SDS011;21650;48.840;9.162;2023-07-29T05:38:40;4.60;;;2.27;;
35540;SDS011;21650;48.840;9.162;2023-07-29T05:41:06;5.00;;;2.10;;
35540;SDS011;21650;48.840;9.162;2023-07-29T05:43:31;6.77;;;2.40;;
35540;SDS011;21650;48.840;9.162;2023-07-29T05:45:57;3.43;;;2.73;;
35540;SDS011;21650;48.840;9.162;2023-07-29T05:48:22;3.07;;;2.33;;
35540;SDS011;21650;48.840;9.162;2023-07-29T05:50:48;4.47;;;2.87;;
35540;SDS011;21650;48.840;9.162;2023-07-29T05:53:15;4.43;;;2.20;;
35540;SDS011;21650;48.840;9.162;2023-07-29T05:55:40;2.63;;;2.10;;
35540;SDS011;21650;48.840;9.162;2023-07-29T05:58:06;4.10;;;2.37;;
35540;SDS011;21650;48.840;9.162;2023-07-29T06:00:31;4.60;;;2.10;;
35540;SDS011;21650;48.840;9.162;2023-07-29T06:02:57;2.40;;;2.03;;
35540;SDS011;21650;48.840;9.162;2023-07-29T06:05:23;2.97;;;2.40;;
35540;SDS011;21650;48.840;9.162;2023-07-29T06:07:48;8.17;;;2.70;;
35540;SDS011;21650;48.840;9.162;2023-07-29T06:10:15;5.27;;;2.60;;
35540;SDS011;21650;48.840;9.162;2023-07-29T06:12:44;2.93;;;2.57;;
35540;SDS011;21650;48.840;9.162;2023-07-29T06:15:10;9.10;;;2.30;;
35540;SDS011;21650;48.840;9.162;2023-07-29T06:17:35;4.50;;;2.50;;
35540;SDS011;21650;48.840;9.162;2023-07-29T06:20:01;4.97;;;2.30;;
35540;SDS011;21650;48.840;9.162;2023-07-29T06:22:27;3.03;;;2.30;;
35540;SDS011;21650;48.840;9.162;2023-07-29T06:24:53;4.43;;;2.30;;
35540;SDS011;21650;48.840;9.162;2023-07-29T06:27:18;5.13;;;2.50;;
35540;SDS011;21650;48.840;9.162;2023-07-29T06:29:44;6.27;;;2.10;;
35540;SDS011;21650;48.840;9.162;2023-07-29T06:32:10;2.50;;;2.30;;
35540;SDS011;21650;48.840;9.162;2023-07-29T06:34:36;5.30;;;2.40;;
35540;SDS011;21650;48.840;9.162;2023-07-29T06:37:01;4.10;;;2.40;;
35540;SDS011;21650;48.840;9.162;2023-07-29T06:39:27;3.93;;;2.37;;
35540;SDS011;21650;48.840;9.162;2023-07-29T06:41:53;3.50;;;2.10;;
35540;SDS011;21650;48.840;9.162;2023-07-29T06:44:18;4.40;;;2.07;;
35540;SDS011;21650;48.840;9.162;2023-07-29T06:46:44;2.47;;;1.87;;
35540;SDS011;21650;48.840;9.162;2023-07-29T06:49:10;5.60;;;2.73;;
35540;SDS011;21650;48.840;9.162;2023-07-29T06:51:35;2.83;;;2.10;;
35540;SDS011;21650;48.840;9.162;2023-07-29T06:54:01;3.93;;;2.60;;
35540;SDS011;21650;48.840;9.162;2023-07-29T06:56:27;4.20;;;2.23;;
35540;SDS011;21650;48.840;9.162;2023-07-29T06:58:53;4.83;;;2.60;;
35540;SDS011;21650;48.840;9.162;2023-07-29T07:01:19;4.07;;;2.27;;
35540;SDS011;21650;48.840;9.162;2023-07-29T07:03:44;3.20;;;2.30;;
35540;SDS011;21650;48.840;9.162;2023-07-29T07:06:10;2.97;;;2.20;;
35540;SDS011;21650;48.840;9.162;2023-07-29T07:08:35;2.97;;;2.00;;
35540;SDS011;21650;48.840;9.162;2023-07-29T07:11:01;3.73;;;1.90;;
35540;SDS011;21650;48.840;9.162;2023-07-29T07:13:27;3.73;;;2.23;;
35540;SDS011;21650;48.840;9.162;2023-07-29T07:15:56;6.47;;;2.23;;
35540;SDS011;21650;48.840;9.162;2023-07-29T07:18:22;2.53;;;1.80;;
35540;SDS011;21650;48.840;9.162;2023-07-29T07:20:50;5.00;;;1.67;;
35540;SDS011;21650;48.840;9.162;2023-07-29T07:23:16;2.07;;;1.50;;
35540;SDS011;21650;48.840;9.162;2023-07-29T07:25:43;3.00;;;1.87;;
35540;SDS011;21650;48.840;9.162;2023-07-29T07:28:09;4.77;;;1.83;;
35540;SDS011;21650;48.840;9.162;2023-07-29T07:30:34;3.70;;;1.87;;
35540;SDS011;21650;48.840;9.162;2023-07-29T07:33:01;2.73;;;1.53;;
35540;SDS011;21650;48.840;9.162;2023-07-29T07:35:26;3.57;;;1.60;;
35540;SDS011;21650;48.840;9.162;2023-07-29T07:37:52;2.93;;;1.80;;
35540;SDS011;21650;48.840;9.162;2023-07-29T07:40:18;1.67;;;1.40;;
35540;SDS011;21650;48.840;9.162;2023-07-29T07:42:43;2.33;;;1.60;;
35540;SDS011;21650;48.840;9.162;2023-07-29T07:45:09;3.03;;;1.60;;
35540;SDS011;21650;48.840;9.162;2023-07-29T07:47:34;2.17;;;1.40;;
35540;SDS011;21650;48.840;9.162;2023-07-29T07:50:00;2.20;;;1.60;;
35540;SDS011;21650;48.840;9.162;2023-07-29T07:52:25;2.03;;;1.43;;
35540;SDS011;21650;48.840;9.162;2023-07-29T07:54:51;3.63;;;1.47;;
35540;SDS011;21650;48.840;9.162;2023-07-29T07:57:19;2.70;;;1.40;;
35540;SDS011;21650;48.840;9.162;2023-07-29T07:59:45;2.20;;;1.37;;
35540;SDS011;21650;48.840;9.162;2023-07-29T08:02:10;1.70;;;1.40;;
35540;SDS011;21650;48.840;9.162;2023-07-29T08:04:36;1.60;;;1.10;;
35540;SDS011;21650;48.840;9.162;2023-07-29T08:07:02;2.30;;;1.60;;
35540;SDS011;21650;48.840;9.162;2023-07-29T08:09:27;1.90;;;1.30;;
35540;SDS011;21650;48.840;9.162;2023-07-29T08:11:53;2.97;;;1.50;;
35540;SDS011;21650;48.840;9.162;2023-07-29T08:14:18;2.03;;;1.83;;
35540;SDS011;21650;48.840;9.162;2023-07-29T08:16:44;1.70;;;0.93;;
35540;SDS011;21650;48.840;9.162;2023-07-29T08:19:10;1.40;;;1.20;;
35540;SDS011;21650;48.840;9.162;2023-07-29T08:21:35;1.83;;;1.33;;
35540;SDS011;21650;48.840;9.162;2023-07-29T08:24:01;3.27;;;1.27;;
35540;SDS011;21650;48.840;9.162;2023-07-29T08:26:27;1.83;;;1.10;;
35540;SDS011;21650;48.840;9.162;2023-07-29T08:28:53;2.77;;;0.80;;
35540;SDS011;21650;48.840;9.162;2023-07-29T08:31:18;0.77;;;0.70;;
35540;SDS011;21650;48.840;9.162;2023-07-29T08:33:44;1.77;;;1.23;;
35540;SDS011;21650;48.840;9.162;2023-07-29T08:36:09;1.57;;;1.30;;
35540;SDS011;21650;48.840;9.162;2023-07-29T08:38:35;1.43;;;1.03;;
35540;SDS011;21650;48.840;9.162;2023-07-29T08:44:06;3.00;;;0.93;;
35540;SDS011;21650;48.840;9.162;2023-07-29T08:46:33;1.53;;;1.10;;
35540;SDS011;21650;48.840;9.162;2023-07-29T08:48:59;1.50;;;1.20;;
35540;SDS011;21650;48.840;9.162;2023-07-29T08:51:26;1.87;;;1.40;;
35540;SDS011;21650;48.840;9.162;2023-07-29T08:53:52;1.70;;;1.30;;
35540;SDS011;21650;48.840;9.162;2023-07-29T08:56:18;1.83;;;1.00;;
35540;SDS011;21650;48.840;9.162;2023-07-29T08:58:44;1.83;;;1.30;;
35540;SDS011;21650;48.840;9.162;2023-07-29T09:01:11;1.60;;;0.90;;
35540;SDS011;21650;48.840;9.162;2023-07-29T09:03:37;3.70;;;0.93;;
35540;SDS011;21650;48.840;9.162;2023-07-29T09:06:03;1.40;;;1.07;;
35540;SDS011;21650;48.840;9.162;2023-07-29T09:08:28;1.70;;;0.90;;
35540;SDS011;21650;48.840;9.162;2023-07-29T09:10:54;0.83;;;0.80;;
35540;SDS011;21650;48.840;9.162;2023-07-29T09:13:20;0.70;;;0.60;;
35540;SDS011;21650;48.840;9.162;2023-07-29T09:15:46;1.17;;;1.07;;
35540;SDS011;21650;48.840;9.162;2023-07-29T09:18:16;1.30;;;0.70;;
35540;SDS011;21650;48.840;9.162;2023-07-29T09:20:47;1.25;;;1.00;;
35540;SDS011;21650;48.840;9.162;2023-07-29T09:23:14;16.23;;;2.20;;
35540;SDS011;21650;48.840;9.162;2023-07-29T09:25:40;0.80;;;0.60;;
35540;SDS011;21650;48.840;9.162;2023-07-29T09:28:08;2.30;;;1.00;;
35540;SDS011;21650;48.840;9.162;2023-07-29T09:30:35;0.85;;;0.68;;
35540;SDS011;21650;48.840;9.162;2023-07-29T09:33:02;1.30;;;0.63;;
35540;SDS011;21650;48.840;9.162;2023-07-29T09:35:30;1.27;;;1.08;;
35540;SDS011;21650;48.840;9.162;2023-07-29T09:37:57;0.80;;;0.70;;
35540;SDS011;21650;48.840;9.162;2023-07-29T09:40:23;1.50;;;0.90;;
35540;SDS011;21650;48.840;9.162;2023-07-29T09:42:49;1.30;;;0.95;;
35540;SDS011;21650;48.840;9.162;2023-07-29T09:45:23;1.10;;;1.00;;
35540;SDS011;21650;48.840;9.162;2023-07-29T09:47:50;1.13;;;0.88;;
35540;SDS011;21650;48.840;9.162;2023-07-29T09:50:17;1.95;;;1.05;;
35540;SDS011;21650;48.840;9.162;2023-07-29T09:52:42;1.10;;;1.00;;
35540;SDS011;21650;48.840;9.162;2023-07-29T09:55:12;1.85;;;1.65;;
35540;SDS011;21650;48.840;9.162;2023-07-29T09:57:39;1.60;;;1.13;;
35540;SDS011;21650;48.840;9.162;2023-07-29T10:00:05;3.15;;;1.45;;
35540;SDS011;21650;48.840;9.162;2023-07-29T10:02:36;4.90;;;1.93;;
35540;SDS011;21650;48.840;9.162;2023-07-29T10:05:03;1.97;;;1.77;;
35540;SDS011;21650;48.840;9.162;2023-07-29T10:07:29;2.75;;;1.10;;
35540;SDS011;21650;48.840;9.162;2023-07-29T10:09:56;1.50;;;1.03;;
35540;SDS011;21650;48.840;9.162;2023-07-29T10:12:24;5.20;;;1.20;;
35540;SDS011;21650;48.840;9.162;2023-07-29T10:14:51;2.72;;;0.82;;
35540;SDS011;21650;48.840;9.162;2023-07-29T10:17:18;1.90;;;1.00;;
35540;SDS011;21650;48.840;9.162;2023-07-29T10:19:45;0.65;;;0.60;;
35540;SDS011;21650;48.840;9.162;2023-07-29T10:22:12;0.80;;;0.60;;
35540;SDS011;21650;48.840;9.162;2023-07-29T10:24:41;1.00;;;0.53;;
35540;SDS011;21650;48.840;9.162;2023-07-29T10:27:09;0.83;;;0.60;;
35540;SDS011;21650;48.840;9.162;2023-07-29T10:29:38;4.03;;;0.70;;
35540;SDS011;21650;48.840;9.162;2023-07-29T10:32:07;0.90;;;0.80;;
35540;SDS011;21650;48.840;9.162;2023-07-29T10:34:36;0.93;;;0.80;;
35540;SDS011;21650;48.840;9.162;2023-07-29T10:37:01;1.40;;;0.80;;
35540;SDS011;21650;48.840;9.162;2023-07-29T10:39:27;1.03;;;0.80;;
35540;SDS011;21650;48.840;9.162;2023-07-29T10:42:16;1.10;;;1.00;;
35540;SDS011;21650;48.840;9.162;2023-07-29T10:49:44;0.73;;;0.60;;
35540;SDS011;21650;48.840;9.162;2023-07-29T10:52:14;0.80;;;0.77;;
35540;SDS011;21650;48.840;9.162;2023-07-29T10:54:42;1.90;;;0.73;;
35540;SDS011;21650;48.840;9.162;2023-07-29T10:57:15;1.53;;;1.00;;
35540;SDS011;21650;48.840;9.162;2023-07-29T10:59:55;6.30;;;1.43;;
35540;SDS011;21650;48.840;9.162;2023-07-29T11:02:22;1.43;;;0.80;;
35540;SDS011;21650;48.840;9.162;2023-07-29T11:05:04;1.00;;;0.80;;
35540;SDS011;21650;48.840;9.162;2023-07-29T11:07:44;1.03;;;0.80;;
35540;SDS011;21650;48.840;9.162;2023-07-29T11:10:11;1.07;;;0.90;;
35540;SDS011;21650;48.840;9.162;2023-07-29T11:17:55;2.07;;;1.00;;
35540;SDS011;21650;48.840;9.162;2023-07-29T11:20:26;1.57;;;0.87;;
35540;SDS011;21650;48.840;9.162;2023-07-29T11:22:53;2.03;;;0.90;;
35540;SDS011;21650;48.840;9.162;2023-07-29T11:25:20;1.70;;;1.00;;
35540;SDS011;21650;48.840;9.162;2023-07-29T11:27:47;1.13;;;0.90;;
35540;SDS011;21650;48.840;9.162;2023-07-29T11:30:14;2.10;;;0.80;;
35540;SDS011;21650;48.840;9.162;2023-07-29T11:32:42;1.67;;;0.67;;
35540;SDS011;21650;48.840;9.162;2023-07-29T11:35:10;0.80;;;0.63;;
35540;SDS011;21650;48.840;9.162;2023-07-29T11:37:38;0.77;;;0.70;;
35540;SDS011;21650;48.840;9.162;2023-07-29T11:40:04;1.93;;;0.83;;
35540;SDS011;21650;48.840;9.162;2023-07-29T11:42:31;1.27;;;0.90;;
35540;SDS011;21650;48.840;9.162;2023-07-29T11:44:58;1.40;;;0.70;;
35540;SDS011;21650;48.840;9.162;2023-07-29T11:47:25;0.80;;;0.70;;
35540;SDS011;21650;48.840;9.162;2023-07-29T11:49:51;1.05;;;0.80;;
35540;SDS011;21650;48.840;9.162;2023-07-29T11:52:17;1.58;;;0.82;;
35540;SDS011;21650;48.840;9.162;2023-07-29T11:54:45;1.05;;;0.82;;
35540;SDS011;21650;48.840;9.162;2023-07-29T11:57:14;0.93;;;0.70;;
35540;SDS011;21650;48.840;9.162;2023-07-29T11:59:41;1.73;;;1.13;;
35540;SDS011;21650;48.840;9.162;2023-07-29T12:02:11;1.60;;;1.00;;
35540;SDS011;21650;48.840;9.162;2023-07-29T12:04:41;1.10;;;1.00;;
35540;SDS011;21650;48.840;9.162;2023-07-29T12:07:09;3.13;;;1.13;;
35540;SDS011;21650;48.840;9.162;2023-07-29T12:09:35;1.83;;;1.00;;
35540;SDS011;21650;48.840;9.162;2023-07-29T12:12:02;1.00;;;0.90;;
35540;SDS011;21650;48.840;9.162;2023-07-29T12:14:29;3.10;;;1.10;;
35540;SDS011;21650;48.840;9.162;2023-07-29T12:16:55;1.15;;;0.88;;
35540;SDS011;21650;48.840;9.162;2023-07-29T12:19:20;1.77;;;1.40;;
35540;SDS011;21650;48.840;9.162;2023-07-29T12:21:47;3.03;;;0.90;;
35540;SDS011;21650;48.840;9.162;2023-07-29T12:24:14;1.45;;;1.15;;
35540;SDS011;21650;48.840;9.162;2023-07-29T12:26:40;1.63;;;1.27;;
35540;SDS011;21650;48.840;9.162;2023-07-29T12:29:13;2.55;;;1.30;;
35540;SDS011;21650;48.840;9.162;2023-07-29T12:31:44;1.67;;;1.17;;
35540;SDS011;21650;48.840;9.162;2023-07-29T12:34:16;1.30;;;1.20;;
35540;SDS011;21650;48.840;9.162;2023-07-29T12:39:20;1.42;;;1.17;;
35540;SDS011;21650;48.840;9.162;2023-07-29T12:41:48;1.75;;;1.23;;
35540;SDS011;21650;48.840;9.162;2023-07-29T12:44:15;2.10;;;1.20;;
35540;SDS011;21650;48.840;9.162;2023-07-29T12:46:40;3.58;;;1.10;;
35540;SDS011;21650;48.840;9.162;2023-07-29T12:49:06;2.22;;;1.20;;
35540;SDS011;21650;48.840;9.162;2023-07-29T12:51:32;1.20;;;1.08;;
35540;SDS011;21650;48.840;9.162;2023-07-29T12:53:58;4.72;;;1.30;;
35540;SDS011;21650;48.840;9.162;2023-07-29T12:56:23;1.30;;;1.20;;
35540;SDS011;21650;48.840;9.162;2023-07-29T12:58:49;1.20;;;1.10;;
35540;SDS011;21650;48.840;9.162;2023-07-29T13:01:15;1.48;;;1.15;;
35540;SDS011;21650;48.840;9.162;2023-07-29T13:03:44;1.20;;;0.90;;
35540;SDS011;21650;48.840;9.162;2023-07-29T13:06:10;1.30;;;1.10;;
35540;SDS011;21650;48.840;9.162;2023-07-29T13:08:35;1.55;;;1.17;;
35540;SDS011;21650;48.840;9.162;2023-07-29T13:11:01;1.23;;;1.13;;
35540;SDS011;21650;48.840;9.162;2023-07-29T13:13:28;1.90;;;1.10;;
35540;SDS011;21650;48.840;9.162;2023-07-29T13:15:54;1.90;;;1.13;;
35540;SDS011;21650;48.840;9.162;2023-07-29T13:18:19;1.15;;;0.85;;
35540;SDS011;21650;48.840;9.162;2023-07-29T13:20:46;1.85;;;0.90;;
35540;SDS011;21650;48.840;9.162;2023-07-29T13:23:11;1.48;;;0.88;;
35540;SDS011;21650;48.840;9.162;2023-07-29T13:25:37;1.42;;;1.23;;
35540;SDS011;21650;48.840;9.162;2023-07-29T13:28:02;1.48;;;1.35;;
35540;SDS011;21650;48.840;9.162;2023-07-29T13:30:28;3.47;;;1.10;;
35540;SDS011;21650;48.840;9.162;2023-07-29T13:32:54;1.13;;;1.02;;
35540;SDS011;21650;48.840;9.162;2023-07-29T13:35:19;1.50;;;1.25;;
35540;SDS011;21650;48.840;9.162;2023-07-29T13:37:45;1.90;;;1.50;;
35540;SDS011;21650;48.840;9.162;2023-07-29T13:40:11;1.50;;;1.40;;
35540;SDS011;21650;48.840;9.162;2023-07-29T13:42:36;1.73;;;1.42;;
35540;SDS011;21650;48.840;9.162;2023-07-29T13:45:02;1.48;;;1.23;;
35540;SDS011;21650;48.840;9.162;2023-07-29T13:47:28;1.75;;;1.13;;
35540;SDS011;21650;48.840;9.162;2023-07-29T13:49:53;3.53;;;1.40;;
35540;SDS011;21650;48.840;9.162;2023-07-29T13:52:19;1.73;;;1.38;;
35540;SDS011;21650;48.840;9.162;2023-07-29T13:54:44;1.52;;;1.38;;
35540;SDS011;21650;48.840;9.162;2023-07-29T13:57:10;2.42;;;1.38;;
35540;SDS011;21650;48.840;9.162;2023-07-29T13:59:36;1.98;;;1.10;;
35540;SDS011;21650;48.840;9.162;2023-07-29T14:02:04;1.92;;;1.27;;
35540;SDS011;21650;48.840;9.162;2023-07-29T14:04:30;1.05;;;0.95;;
35540;SDS011;21650;48.840;9.162;2023-07-29T14:06:56;2.38;;;1.00;;
35540;SDS011;21650;48.840;9.162;2023-07-29T14:09:22;3.05;;;1.30;;
35540;SDS011;21650;48.840;9.162;2023-07-29T14:11:48;3.40;;;1.30;;
35540;SDS011;21650;48.840;9.162;2023-07-29T14:14:13;1.80;;;1.20;;
35540;SDS011;21650;48.840;9.162;2023-07-29T14:16:39;1.88;;;1.05;;
35540;SDS011;21650;48.840;9.162;2023-07-29T14:19:05;2.08;;;1.13;;
35540;SDS011;21650;48.840;9.162;2023-07-29T14:21:30;1.60;;;1.30;;
35540;SDS011;21650;48.840;9.162;2023-07-29T14:23:56;1.25;;;1.15;;
35540;SDS011;21650;48.840;9.162;2023-07-29T14:26:21;1.90;;;1.10;;
35540;SDS011;21650;48.840;9.162;2023-07-29T14:28:47;1.52;;;1.30;;
35540;SDS011;21650;48.840;9.162;2023-07-29T14:31:14;1.58;;;1.10;;
35540;SDS011;21650;48.840;9.162;2023-07-29T14:33:42;1.70;;;1.60;;
35540;SDS011;21650;48.840;9.162;2023-07-29T14:36:08;2.28;;;1.38;;
35540;SDS011;21650;48.840;9.162;2023-07-29T14:38:34;2.47;;;1.25;;
35540;SDS011;21650;48.840;9.162;2023-07-29T14:41:00;1.50;;;1.40;;
35540;SDS011;21650;48.840;9.162;2023-07-29T14:43:25;2.90;;;1.67;;
35540;SDS011;21650;48.840;9.162;2023-07-29T14:45:51;1.42;;;1.27;;
35540;SDS011;21650;48.840;9.162;2023-07-29T14:48:16;2.20;;;1.40;;
35540;SDS011;21650;48.840;9.162;2023-07-29T14:50:42;1.35;;;1.25;;
35540;SDS011;21650;48.840;9.162;2023-07-29T14:53:09;1.20;;;1.10;;
35540;SDS011;21650;48.840;9.162;2023-07-29T14:55:35;1.67;;;1.20;;
35540;SDS011;21650;48.840;9.162;2023-07-29T14:58:01;2.05;;;1.40;;
35540;SDS011;21650;48.840;9.162;2023-07-29T15:00:27;3.95;;;1.40;;
35540;SDS011;21650;48.840;9.162;2023-07-29T15:02:52;3.65;;;1.48;;